Time;durP1;ratioP1;P1;durP2;ratioP2;P2;SDS_P1;SDS_P2;PMS_P1;PMS_P2;Temp;Humidity;BMP_temperature;BMP_pressure;BME280_temperature;BME280_humidity;BME280_pressure;Samples;Min_cycle;Max_cycle;Signal;HPM_P1;HPM_P2
2022/01/02 00:00:22;;;;;;;77.13;35.50;;;;;;;1.15;99.26;101256.90;1467227;87;21770;-87
2022/01/02 00:03:06;;;;;;;77.30;36.77;;;;;;;1.12;99.05;101255.27;1421122;87;21874;-86
2022/01/02 00:05:32;;;;;;;59.80;38.10;;;;;;;1.05;98.83;101249.48;1458593;87;21822;-86
2022/01/02 00:08:11;;;;;;;60.70;33.23;;;;;;;1.00;98.98;101247.98;1454147;87;21726;-86
2022/01/02 00:10:47;;;;;;;55.87;29.90;;;;;;;0.96;98.65;101247.74;1464380;87;21786;-86
2022/01/02 00:13:17;;;;;;;49.60;30.77;;;;;;;0.95;98.58;101251.24;1469508;87;21801;-86
2022/01/02 00:15:44;;;;;;;54.27;33.50;;;;;;;0.96;98.46;101247.74;1465318;87;22939;-87
2022/01/02 00:18:13;;;;;;;42.23;29.20;;;;;;;0.93;98.61;101249.19;1426804;87;21836;-86
2022/01/02 00:20:49;;;;;;;50.53;29.57;;;;;;;0.90;98.69;101252.77;1447527;88;22463;-87
2022/01/02 00:23:21;;;;;;;53.47;27.77;;;;;;;0.87;98.60;101255.04;1444400;87;21765;-87
2022/01/02 00:25:52;;;;;;;43.78;28.70;;;;;;;0.83;98.53;101253.92;1471100;87;21748;-87
2022/01/02 00:28:19;;;;;;;42.73;26.33;;;;;;;0.79;98.65;101261.48;1448102;87;21555;-87
2022/01/02 00:30:47;;;;;;;40.80;23.83;;;;;;;0.77;98.61;101252.42;1460365;87;22353;-86
2022/01/02 00:33:13;;;;;;;28.43;21.70;;;;;;;0.76;98.50;101249.44;1472179;87;21574;-83
2022/01/02 00:35:40;;;;;;;28.17;21.43;;;;;;;0.79;98.51;101262.80;1482741;87;21837;-84
2022/01/02 00:38:09;;;;;;;32.43;21.00;;;;;;;0.79;98.51;101262.80;1481397;87;21776;-84
2022/01/02 00:40:42;;;;;;;31.67;21.73;;;;;;;0.79;98.41;101267.55;1475116;87;22617;-84
2022/01/02 00:43:12;;;;;;;35.23;24.47;;;;;;;0.69;97.87;101264.92;1455816;87;21643;-84
2022/01/02 00:45:44;;;;;;;34.65;24.60;;;;;;;0.64;98.08;101265.59;1465325;87;21617;-84
2022/01/02 00:48:29;;;;;;;27.03;21.40;;;;;;;0.60;98.40;101262.70;1488583;87;21419;-85
2022/01/02 00:51:04;;;;;;;26.40;20.60;;;;;;;0.55;98.26;101263.37;1466785;87;21609;-85
2022/01/02 00:53:36;;;;;;;23.83;18.17;;;;;;;0.53;98.21;101267.78;1484529;87;21747;-84
2022/01/02 00:56:04;;;;;;;29.33;20.63;;;;;;;0.51;98.31;101261.78;1457913;87;23270;-84
2022/01/02 00:58:39;;;;;;;30.03;20.23;;;;;;;0.51;98.67;101269.59;1448173;88;21573;-85
2022/01/02 01:01:08;;;;;;;33.53;20.50;;;;;;;0.52;98.40;101272.58;1444122;87;21777;-84
2022/01/02 01:03:35;;;;;;;39.13;25.23;;;;;;;0.50;98.63;101263.55;1479750;87;21590;-85
2022/01/02 01:06:04;;;;;;;44.33;25.97;;;;;;;0.47;98.42;101264.13;1455248;87;21580;-85
2022/01/02 01:08:33;;;;;;;29.33;21.80;;;;;;;0.44;98.97;101265.94;1462753;87;21690;-84
2022/01/02 01:10:59;;;;;;;31.97;23.10;;;;;;;0.40;99.02;101263.08;1414769;88;21509;-85
2022/01/02 01:13:26;;;;;;;27.53;20.80;;;;;;;0.39;98.69;101258.77;1417251;88;21642;-85
2022/01/02 01:15:53;;;;;;;27.17;21.40;;;;;;;0.39;98.53;101262.67;1417599;88;21807;-84
2022/01/02 01:18:20;;;;;;;33.87;22.50;;;;;;;0.41;98.31;101260.02;1458365;88;21774;-84
2022/01/02 01:20:46;;;;;;;39.07;22.93;;;;;;;0.42;98.34;101256.49;1463687;88;22698;-85
2022/01/02 01:23:16;;;;;;;33.73;22.40;;;;;;;0.44;98.55;101254.68;1449034;88;21693;-85
2022/01/02 01:25:45;;;;;;;34.33;22.53;;;;;;;0.42;98.72;101251.28;1456330;88;23269;-83
2022/01/02 01:28:11;;;;;;;37.57;22.47;;;;;;;0.40;98.67;101253.97;1462837;87;22822;-84
2022/01/02 01:30:38;;;;;;;25.77;20.83;;;;;;;0.41;98.65;101258.26;1466835;87;21769;-84
2022/01/02 01:33:04;;;;;;;27.70;21.40;;;;;;;0.39;98.51;101246.20;1460085;87;21679;-85
2022/01/02 01:35:31;;;;;;;26.33;19.83;;;;;;;0.38;98.54;101251.03;1462354;88;21648;-84
2022/01/02 01:37:57;;;;;;;27.53;19.23;;;;;;;0.35;98.05;101245.48;1459142;87;21996;-85
2022/01/02 01:40:23;;;;;;;32.27;20.67;;;;;;;0.34;98.08;101254.19;1451918;88;21600;-85
2022/01/02 01:43:02;;;;;;;30.47;21.57;;;;;;;0.28;97.89;101256.20;1457313;89;22670;-85
2022/01/02 01:45:29;;;;;;;30.53;22.40;;;;;;;0.18;97.56;101268.30;1459806;87;21757;-85
2022/01/02 01:48:04;;;;;;;28.27;22.50;;;;;;;0.13;97.98;101266.31;1468661;88;21774;-85
2022/01/02 01:50:35;;;;;;;29.37;22.53;;;;;;;0.14;98.34;101264.55;1449411;89;21735;-85
2022/01/02 01:53:01;;;;;;;26.40;21.48;;;;;;;0.13;98.30;101258.97;1452311;88;21684;-84
2022/01/02 01:55:28;;;;;;;27.93;19.87;;;;;;;0.15;98.34;101259.77;1435841;90;21657;-85
2022/01/02 01:57:54;;;;;;;30.17;20.53;;;;;;;0.18;98.42;101266.14;1451138;88;21731;-85
2022/01/02 02:00:22;;;;;;;29.40;20.97;;;;;;;0.18;98.54;101268.75;1457212;88;21647;-84
2022/01/02 02:02:49;;;;;;;28.70;21.50;;;;;;;0.18;98.70;101268.75;1461029;88;21790;-85
2022/01/02 02:05:16;;;;;;;29.77;20.93;;;;;;;0.17;98.77;101274.42;1466397;88;21707;-85
2022/01/02 02:07:46;;;;;;;31.70;22.90;;;;;;;0.17;98.81;101271.81;1422179;91;21780;-85
2022/01/02 02:10:28;;;;;;;30.50;22.23;;;;;;;0.18;98.87;101264.84;1460170;87;22317;-85
2022/01/02 02:12:57;;;;;;;27.80;20.85;;;;;;;0.20;98.74;101261.70;1463175;88;22514;-85
2022/01/02 02:15:24;;;;;;;32.43;20.17;;;;;;;0.23;98.62;101258.98;1466849;88;21449;-84
2022/01/02 02:17:51;;;;;;;29.77;22.93;;;;;;;0.21;98.55;101255.15;1459815;88;21639;-84
2022/01/02 02:20:31;;;;;;;34.53;24.13;;;;;;;0.21;98.48;101260.81;1459015;87;22581;-84
2022/01/02 02:23:00;;;;;;;39.03;25.13;;;;;;;0.21;98.71;101262.12;1459217;88;21841;-85
2022/01/02 02:25:31;;;;;;;42.70;26.27;;;;;;;0.22;98.68;101257.30;1455842;88;22636;-85
2022/01/02 02:28:01;;;;;;;54.40;28.70;;;;;;;0.24;98.58;101258.09;1453853;88;22585;-85
2022/01/02 02:30:31;;;;;;;57.90;29.90;;;;;;;0.25;98.36;101264.98;1468805;87;21448;-84
2022/01/02 02:32:59;;;;;;;53.30;29.63;;;;;;;0.25;98.22;101267.58;1445952;88;21930;-84
2022/01/02 02:35:28;;;;;;;66.53;31.50;;;;;;;0.26;98.29;101274.51;1470561;86;21800;-84
2022/01/02 02:37:54;;;;;;;52.87;30.03;;;;;;;0.26;98.32;101269.73;1490573;86;21741;-83
2022/01/02 02:40:24;;;;;;;42.63;26.97;;;;;;;0.25;98.57;101269.34;1483426;87;21796;-83
2022/01/02 02:42:55;;;;;;;42.33;25.90;;;;;;;0.27;98.59;101270.14;1476947;86;21726;-83
2022/01/02 02:51:14;;;;;;;40.33;23.80;;;;;;;0.29;98.39;101258.77;1471343;87;21744;-84
2022/01/02 02:53:44;;;;;;;40.00;24.80;;;;;;;0.29;98.24;101264.39;1484588;87;21708;-83
2022/01/02 02:56:20;;;;;;;40.83;26.12;;;;;;;0.24;98.04;101260.69;1470615;87;21611;-84
2022/01/02 02:58:45;;;;;;;35.10;23.43;;;;;;;0.22;98.38;101266.41;1479020;87;21463;-84
2022/01/02 03:01:17;;;;;;;35.33;23.97;;;;;;;0.20;98.25;101261.28;1489555;87;22767;-84
2022/01/02 03:03:45;;;;;;;27.23;20.10;;;;;;;0.23;98.37;101264.19;1481612;87;21916;-83
2022/01/02 03:06:14;;;;;;;28.17;20.83;;;;;;;0.25;98.14;101258.47;1482421;87;21772;-83
2022/01/02 03:08:42;;;;;;;26.43;20.00;;;;;;;0.29;98.42;101254.86;1491167;87;21581;-84
2022/01/02 03:11:14;;;;;;;31.50;21.60;;;;;;;0.30;98.41;101248.73;1485595;87;21759;-84
2022/01/02 03:13:39;;;;;;;34.47;22.17;;;;;;;0.29;98.30;101244.87;1478166;87;23115;-84
2022/01/02 03:16:05;;;;;;;29.97;23.50;;;;;;;0.28;98.37;101249.23;1475875;87;21714;-84
2022/01/02 03:18:32;;;;;;;24.27;18.93;;;;;;;0.27;98.26;101247.55;1472337;87;21887;-83
2022/01/02 03:20:58;;;;;;;30.53;21.90;;;;;;;0.28;98.13;101257.05;1467160;87;23065;-84
2022/01/02 03:23:25;;;;;;;26.57;19.53;;;;;;;0.28;98.12;101247.93;1471478;87;21799;-84
2022/01/02 03:25:51;;;;;;;27.50;22.00;;;;;;;0.34;98.31;101251.59;1484416;87;21719;-84
2022/01/02 03:28:17;;;;;;;26.77;20.60;;;;;;;0.35;98.30;101254.60;1481168;87;21704;-84
2022/01/02 03:30:43;;;;;;;25.13;18.83;;;;;;;0.38;98.37;101257.54;1484930;87;21721;-84
2022/01/02 03:33:10;;;;;;;28.40;19.97;;;;;;;0.37;98.39;101257.97;1481988;87;21703;-83
2022/01/02 03:35:36;;;;;;;28.60;21.50;;;;;;;0.33;98.36;101257.71;1491991;87;22749;-83
2022/01/02 03:38:04;;;;;;;26.10;20.57;;;;;;;0.33;98.53;101255.11;1481683;87;21750;-83
2022/01/02 03:40:30;;;;;;;25.67;20.23;;;;;;;0.35;98.53;101257.20;1469038;87;21682;-84
2022/01/02 03:42:57;;;;;;;24.93;18.90;;;;;;;0.39;98.63;101259.22;1468382;87;21722;-83
2022/01/02 03:45:24;;;;;;;21.57;17.87;;;;;;;0.46;98.69;101260.66;1474221;87;22501;-83
2022/01/02 03:47:50;;;;;;;26.80;19.77;;;;;;;0.53;98.82;101261.27;1483831;86;21661;-83
2022/01/02 03:50:17;;;;;;;24.73;19.50;;;;;;;0.57;98.77;101255.02;1460616;87;21784;-83
2022/01/02 03:52:43;;;;;;;28.10;21.40;;;;;;;0.58;98.66;101258.88;1472990;87;22772;-84
2022/01/02 03:55:10;;;;;;;29.43;21.80;;;;;;;0.60;98.69;101260.94;1485769;87;22849;-83
2022/01/02 03:57:37;;;;;;;28.17;21.57;;;;;;;0.63;98.72;101255.62;1484952;87;21536;-83
2022/01/02 04:00:11;;;;;;;28.17;20.50;;;;;;;0.65;98.74;101260.76;1478270;87;21762;-84
2022/01/02 04:02:38;;;;;;;26.50;19.17;;;;;;;0.68;98.39;101258.86;1475852;87;21870;-83
2022/01/02 04:05:09;;;;;;;28.50;21.67;;;;;;;0.72;98.47;101257.43;1471063;87;21801;-83
2022/01/02 04:07:40;;;;;;;31.07;21.83;;;;;;;0.75;98.33;101259.48;1476379;87;21868;-83
2022/01/02 04:10:10;;;;;;;29.93;21.10;;;;;;;0.77;98.29;101255.02;1470483;87;21720;-83
2022/01/02 04:12:37;;;;;;;31.53;21.83;;;;;;;0.76;98.34;101255.95;1474193;87;21898;-84
2022/01/02 04:15:07;;;;;;;32.03;22.63;;;;;;;0.75;98.49;101258.17;1489774;87;21816;-83
2022/01/02 04:17:34;;;;;;;32.90;25.43;;;;;;;0.77;98.46;101262.84;1453509;87;21893;-83
2022/01/02 04:20:04;;;;;;;31.33;23.83;;;;;;;0.80;98.49;101263.17;1434585;86;21835;-83
2022/01/02 04:22:30;;;;;;;35.47;24.60;;;;;;;0.82;98.53;101267.87;1473488;87;21794;-82
2022/01/02 04:24:56;;;;;;;29.70;21.03;;;;;;;0.90;98.43;101273.16;1471507;87;21721;-83
2022/01/02 04:27:23;;;;;;;35.03;23.27;;;;;;;0.90;98.43;101273.16;1475711;87;21928;-83
2022/01/02 04:29:51;;;;;;;35.33;22.63;;;;;;;0.92;98.45;101261.80;1475150;87;22536;-83
2022/01/02 04:32:18;;;;;;;31.63;22.87;;;;;;;0.95;98.45;101261.23;1494796;87;21874;-83
2022/01/02 04:34:45;;;;;;;31.60;22.70;;;;;;;0.96;98.38;101267.30;1487063;87;22681;-83
2022/01/02 04:37:12;;;;;;;31.50;23.17;;;;;;;0.98;98.53;101264.14;1471345;87;21868;-83
2022/01/02 04:39:40;;;;;;;28.93;22.90;;;;;;;1.02;98.71;101255.30;1476431;87;22735;-82
2022/01/02 04:42:08;;;;;;;26.00;19.43;;;;;;;1.02;98.71;101255.30;1482174;87;22068;-83
2022/01/02 04:44:34;;;;;;;29.40;22.47;;;;;;;1.04;98.45;101256.09;1497386;87;22913;-83
2022/01/02 04:47:01;;;;;;;28.57;21.83;;;;;;;1.16;98.28;101251.63;1475120;87;21739;-83
2022/01/02 04:49:28;;;;;;;35.90;23.70;;;;;;;1.16;98.28;101251.63;1482586;87;22096;-83
2022/01/02 04:51:54;;;;;;;144.47;70.07;;;;;;;1.19;98.09;101261.09;1487721;87;21798;-83
2022/01/02 04:54:22;;;;;;;142.17;80.20;;;;;;;1.16;97.76;101260.77;1482313;87;21897;-82
2022/01/02 04:56:48;;;;;;;41.30;25.90;;;;;;;1.15;97.84;101268.17;1487472;87;23007;-83
2022/01/02 04:59:15;;;;;;;35.10;24.93;;;;;;;1.15;97.96;101275.99;1480415;87;21755;-82
2022/01/02 05:01:41;;;;;;;33.63;26.57;;;;;;;1.16;97.94;101280.78;1482460;87;21803;-83
2022/01/02 05:04:08;;;;;;;36.33;26.23;;;;;;;1.18;98.08;101266.77;1483725;87;22806;-83
2022/01/02 05:06:34;;;;;;;32.40;23.13;;;;;;;1.18;98.08;101266.77;1484693;87;21887;-83
2022/01/02 05:09:01;;;;;;;31.80;25.17;;;;;;;1.23;97.94;101271.30;1476724;87;21989;-83
2022/01/02 05:11:27;;;;;;;31.37;24.30;;;;;;;1.27;97.84;101270.27;1485826;87;21908;-83
2022/01/02 05:13:53;;;;;;;31.03;23.83;;;;;;;1.31;97.83;101275.73;1431934;90;21857;-83
2022/01/02 05:16:19;;;;;;;30.53;23.13;;;;;;;1.33;97.93;101283.03;1432197;90;21928;-83
2022/01/02 05:18:45;;;;;;;40.90;24.70;;;;;;;1.33;98.00;101272.60;1432182;89;22886;-83
2022/01/02 05:21:13;;;;;;;32.07;24.30;;;;;;;1.34;97.92;101279.50;1470467;87;21991;-83
2022/01/02 05:23:39;;;;;;;30.90;23.43;;;;;;;1.33;97.74;101279.12;1475904;87;21901;-82
2022/01/02 05:26:05;;;;;;;32.27;25.33;;;;;;;1.36;97.73;101276.84;1470966;87;21817;-83
2022/01/02 05:28:32;;;;;;;31.50;24.80;;;;;;;1.42;97.52;101278.33;1479175;87;21946;-83
2022/01/02 05:30:58;;;;;;;27.90;21.80;;;;;;;1.42;97.52;101278.33;1467688;87;21947;-83
2022/01/02 05:33:24;;;;;;;32.40;24.97;;;;;;;1.49;97.57;101266.69;1486269;87;21877;-83
2022/01/02 05:35:53;;;;;;;32.67;24.23;;;;;;;1.49;97.57;101266.69;1432123;90;21878;-83
2022/01/02 05:38:20;;;;;;;38.30;28.37;;;;;;;1.50;97.79;101250.14;1483404;87;21879;-83
2022/01/02 05:40:50;;;;;;;81.80;56.10;;;;;;;1.50;97.79;101250.14;1474465;87;23891;-82
2022/01/02 05:43:16;;;;;;;67.00;45.57;;;;;;;1.55;97.85;101248.14;1480648;87;22006;-83
2022/01/02 05:45:42;;;;;;;43.87;33.33;;;;;;;1.54;97.83;101243.86;1430113;90;22137;-82
2022/01/02 05:48:09;;;;;;;37.97;29.90;;;;;;;1.57;98.08;101244.55;1485851;87;21967;-83
2022/01/02 05:50:35;;;;;;;45.63;32.60;;;;;;;1.61;97.74;101245.25;1474422;87;22131;-82
2022/01/02 05:53:01;;;;;;;36.70;28.70;;;;;;;1.65;97.75;101252.04;1476107;87;22339;-83
2022/01/02 05:55:27;;;;;;;37.97;28.93;;;;;;;1.62;97.61;101240.44;1475295;87;23149;-83
2022/01/02 05:57:53;;;;;;;42.03;30.63;;;;;;;1.71;97.60;101250.91;1434239;91;22055;-82
2022/01/02 06:00:19;;;;;;;39.40;29.10;;;;;;;1.71;97.60;101250.91;1468486;87;21977;-83
2022/01/02 06:02:45;;;;;;;38.27;30.07;;;;;;;1.75;97.70;101235.02;1471403;87;22235;-83
2022/01/02 06:05:11;;;;;;;35.63;27.10;;;;;;;1.75;97.70;101235.02;1478101;87;22910;-83
2022/01/02 06:07:38;;;;;;;32.70;25.50;;;;;;;1.77;97.85;101242.80;1483027;87;22126;-83
2022/01/02 06:10:06;;;;;;;32.27;23.80;;;;;;;1.75;97.79;101232.41;1434096;91;22155;-83
2022/01/02 06:12:32;;;;;;;27.73;20.77;;;;;;;1.79;97.92;101233.98;1469718;87;22186;-83
2022/01/02 06:14:58;;;;;;;28.40;23.07;;;;;;;1.87;97.57;101228.47;1489850;87;22250;-82
2022/01/02 06:17:24;;;;;;;33.93;25.17;;;;;;;1.93;97.56;101237.72;1487303;87;22106;-83
2022/01/02 06:19:50;;;;;;;40.83;31.30;;;;;;;1.93;97.56;101237.72;1464590;87;22172;-82
2022/01/02 06:22:17;;;;;;;41.57;29.73;;;;;;;1.86;97.30;101248.05;1477712;87;21978;-83
2022/01/02 06:24:43;;;;;;;37.80;30.00;;;;;;;1.86;97.30;101248.05;1471769;87;22294;-83
2022/01/02 06:27:09;;;;;;;32.30;25.73;;;;;;;1.87;97.63;101247.12;1476035;87;22187;-82
2022/01/02 06:29:36;;;;;;;31.00;24.27;;;;;;;1.87;98.11;101248.42;1486714;87;22186;-82
2022/01/02 06:32:03;;;;;;;29.77;21.17;;;;;;;1.92;98.00;101252.52;1475422;87;21890;-83
2022/01/02 06:34:30;;;;;;;29.37;21.57;;;;;;;1.97;98.12;101249.70;1483661;87;22444;-83
2022/01/02 06:36:56;;;;;;;27.17;21.40;;;;;;;1.98;98.04;101251.38;1428673;90;23090;-82
2022/01/02 06:39:22;;;;;;;30.87;23.90;;;;;;;1.99;97.78;101259.63;1487429;87;22266;-83
2022/01/02 06:41:51;;;;;;;30.87;23.90;;;;;;;2.03;98.23;101250.25;1482749;87;22174;-83
2022/01/02 06:44:16;;;;;;;38.83;27.87;;;;;;;2.04;98.56;101244.56;1483307;87;23201;-83
2022/01/02 06:46:42;;;;;;;39.53;27.97;;;;;;;2.04;98.56;101257.47;1485747;87;22193;-83
2022/01/02 06:49:08;;;;;;;36.07;27.50;;;;;;;2.07;98.59;101257.47;1459716;87;22231;-83
2022/01/02 06:51:35;;;;;;;33.07;24.73;;;;;;;2.06;98.73;101254.48;1482638;87;24814;-83
2022/01/02 06:54:01;;;;;;;31.30;23.30;;;;;;;2.11;98.58;101249.89;1475234;87;23676;-83
2022/01/02 06:56:27;;;;;;;29.37;23.23;;;;;;;2.14;98.64;101254.97;1480169;87;23188;-83
2022/01/02 06:58:53;;;;;;;29.40;22.53;;;;;;;2.20;98.66;101263.81;1468906;87;22129;-83
2022/01/02 07:01:19;;;;;;;33.03;23.60;;;;;;;2.28;98.80;101266.53;1465188;87;22173;-82
2022/01/02 07:03:45;;;;;;;29.30;21.80;;;;;;;2.31;98.57;101265.91;1484866;87;23282;-83
2022/01/02 07:06:11;;;;;;;32.83;23.20;;;;;;;2.33;98.48;101269.73;1482327;87;21540;-82
2022/01/02 07:08:38;;;;;;;32.63;23.67;;;;;;;2.36;98.41;101264.36;1474742;87;22307;-82
2022/01/02 07:11:05;;;;;;;33.60;24.53;;;;;;;2.33;98.58;101260.16;1464783;87;22124;-83
2022/01/02 07:13:31;;;;;;;32.20;23.70;;;;;;;2.35;98.46;101262.69;1478201;87;22253;-83
2022/01/02 07:15:58;;;;;;;29.40;22.57;;;;;;;2.41;98.69;101261.91;1480077;87;22194;-83
2022/01/02 07:18:24;;;;;;;25.67;20.77;;;;;;;2.47;98.53;101259.03;1472884;87;23285;-83
2022/01/02 07:20:50;;;;;;;28.67;22.47;;;;;;;2.55;98.46;101248.18;1481832;87;22157;-83
2022/01/02 07:23:16;;;;;;;30.50;22.93;;;;;;;2.62;98.51;101250.89;1475376;87;22143;-83
2022/01/02 07:25:42;;;;;;;32.13;23.77;;;;;;;2.65;98.01;101248.59;1482551;87;22990;-83
2022/01/02 07:28:08;;;;;;;32.70;24.70;;;;;;;2.67;97.96;101242.33;1479172;87;22325;-83
2022/01/02 07:30:34;;;;;;;33.57;24.67;;;;;;;2.70;98.11;101246.13;1479368;87;21496;-83
2022/01/02 07:33:02;;;;;;;32.33;26.33;;;;;;;2.75;98.26;101238.50;1471273;87;22238;-83
2022/01/02 07:35:32;;;;;;;34.43;25.17;;;;;;;2.77;98.09;101234.05;1487107;87;21494;-83
2022/01/02 07:37:58;;;;;;;37.07;26.77;;;;;;;2.85;98.19;101235.78;1424502;90;22212;-83
2022/01/02 07:40:26;;;;;;;34.87;25.47;;;;;;;2.93;98.08;101231.89;1483202;87;24226;-83
2022/01/02 07:42:52;;;;;;;36.27;26.90;;;;;;;3.02;98.12;101222.44;1475199;87;22530;-82
2022/01/02 07:45:20;;;;;;;36.10;27.20;;;;;;;3.15;98.31;101222.44;1479432;87;22377;-83
2022/01/02 07:47:46;;;;;;;38.67;30.23;;;;;;;3.29;98.49;101218.27;1475797;87;21442;-82
2022/01/02 07:50:13;;;;;;;38.53;28.20;;;;;;;3.40;98.20;101200.22;1423655;90;21549;-82
2022/01/02 07:52:39;;;;;;;36.60;27.43;;;;;;;3.47;97.83;101205.96;1478678;87;21486;-83
2022/01/02 07:55:06;;;;;;;36.37;27.53;;;;;;;3.47;97.83;101205.96;1481037;87;21621;-83
2022/01/02 07:57:32;;;;;;;35.77;27.70;;;;;;;3.46;97.50;101203.81;1481823;87;21678;-82
2022/01/02 07:59:58;;;;;;;35.77;26.00;;;;;;;3.38;97.07;101196.36;1475452;87;21458;-83
2022/01/02 08:02:24;;;;;;;33.77;25.27;;;;;;;3.35;96.86;101197.00;1476090;87;22279;-82
2022/01/02 08:04:50;;;;;;;27.80;22.47;;;;;;;3.38;96.93;101203.37;1483851;87;21518;-83
2022/01/02 08:07:17;;;;;;;37.20;26.90;;;;;;;3.43;97.21;101204.45;1473976;87;22041;-83
2022/01/02 08:09:43;;;;;;;30.63;23.10;;;;;;;3.51;97.65;101204.41;1480864;87;22366;-83
2022/01/02 08:12:09;;;;;;;30.00;22.37;;;;;;;3.56;97.66;101215.45;1492467;87;22542;-83
2022/01/02 08:14:35;;;;;;;35.43;26.80;;;;;;;3.54;97.79;101225.62;1423707;90;21546;-83
2022/01/02 08:17:02;;;;;;;33.07;23.23;;;;;;;3.54;98.02;101228.24;1476949;87;21442;-83
2022/01/02 08:19:28;;;;;;;29.07;23.13;;;;;;;3.63;98.40;101219.91;1475191;87;22309;-83
2022/01/02 08:21:54;;;;;;;35.07;24.57;;;;;;;3.77;98.74;101225.68;1466479;87;21722;-83
2022/01/02 08:24:21;;;;;;;35.90;25.97;;;;;;;3.90;98.92;101224.09;1423254;90;21672;-83
2022/01/02 08:26:47;;;;;;;34.30;24.63;;;;;;;4.00;98.75;101220.03;1481342;87;21571;-83
2022/01/02 08:29:13;;;;;;;35.03;25.57;;;;;;;4.12;98.86;101207.18;1473601;87;21377;-83
2022/01/02 08:31:40;;;;;;;39.80;28.67;;;;;;;4.22;98.61;101213.56;1482865;87;22404;-83
2022/01/02 08:34:07;;;;;;;44.83;30.23;;;;;;;4.30;98.53;101217.44;1479030;87;21670;-83
2022/01/02 08:36:33;;;;;;;40.07;29.23;;;;;;;4.38;98.54;101214.39;1466354;87;21480;-83
2022/01/02 08:39:00;;;;;;;39.43;28.13;;;;;;;4.45;98.41;101215.70;1483678;87;21588;-83
2022/01/02 08:41:27;;;;;;;38.70;26.67;;;;;;;4.57;98.45;101215.92;1428681;90;21452;-83
2022/01/02 08:43:53;;;;;;;37.13;28.30;;;;;;;4.70;98.67;101213.81;1459229;87;21414;-82
2022/01/02 08:46:19;;;;;;;40.37;29.90;;;;;;;4.83;98.21;101209.98;1483161;87;22425;-82
2022/01/02 08:48:45;;;;;;;40.13;29.27;;;;;;;4.98;98.45;101214.33;1435713;90;21584;-83
2022/01/02 08:51:12;;;;;;;41.73;31.13;;;;;;;5.10;97.99;101221.92;1438836;90;21453;-83
2022/01/02 08:53:40;;;;;;;39.97;29.30;;;;;;;5.14;97.43;101224.72;1426349;90;21552;-83
2022/01/02 08:56:07;;;;;;;45.37;29.83;;;;;;;5.17;97.58;101227.16;1427187;90;21378;-83
2022/01/02 08:58:33;;;;;;;39.87;28.17;;;;;;;5.11;96.67;101218.83;1436123;90;21585;-83
2022/01/02 09:01:00;;;;;;;41.27;28.53;;;;;;;5.13;96.69;101217.80;1457276;87;21494;-83
2022/01/02 09:03:27;;;;;;;52.20;32.80;;;;;;;5.14;96.43;101218.64;1429465;90;21443;-83
2022/01/02 09:05:53;;;;;;;52.63;34.93;;;;;;;5.10;96.11;101215.84;1487997;87;21523;-83
2022/01/02 09:08:20;;;;;;;46.13;29.90;;;;;;;5.15;96.68;101202.81;1478815;87;22427;-83
2022/01/02 09:10:46;;;;;;;40.27;30.77;;;;;;;5.22;96.91;101198.02;1480186;87;21550;-83
2022/01/02 09:13:12;;;;;;;40.50;30.77;;;;;;;5.30;97.03;101194.46;1470580;87;21546;-83
2022/01/02 09:15:39;;;;;;;40.90;31.00;;;;;;;5.40;97.35;101193.41;1462731;87;22472;-82
2022/01/02 09:18:05;;;;;;;35.40;27.63;;;;;;;5.53;97.41;101188.25;1468866;87;21467;-82
2022/01/02 09:20:32;;;;;;;39.17;29.43;;;;;;;5.67;97.53;101184.28;1475509;87;21392;-82
2022/01/02 09:22:59;;;;;;;50.77;36.50;;;;;;;5.80;97.09;101182.54;1482130;87;21548;-83
2022/01/02 09:25:25;;;;;;;47.07;34.50;;;;;;;5.96;97.26;101173.25;1479666;87;22589;-83
2022/01/02 09:27:51;;;;;;;48.70;32.67;;;;;;;6.09;96.93;101171.96;1465085;87;22479;-82
2022/01/02 09:30:18;;;;;;;43.53;34.70;;;;;;;6.18;96.64;101164.78;1473471;87;21390;-83
2022/01/02 09:32:44;;;;;;;45.73;34.63;;;;;;;6.26;96.66;101161.18;1471408;87;23488;-83
2022/01/02 09:35:11;;;;;;;46.40;34.37;;;;;;;6.37;96.51;101164.89;1487319;87;21442;-82
2022/01/02 09:37:38;;;;;;;50.17;37.73;;;;;;;6.55;96.96;101159.70;1473095;87;22406;-83
2022/01/02 09:40:07;;;;;;;42.73;32.57;;;;;;;6.69;96.36;101159.61;1471208;87;21628;-83
2022/01/02 09:42:34;;;;;;;49.97;38.23;;;;;;;6.88;96.47;101166.26;1471282;87;21547;-83
2022/01/02 09:45:02;;;;;;;31.90;25.37;;;;;;;7.02;96.05;101166.14;1467609;87;21481;-83
2022/01/02 09:47:31;;;;;;;31.77;23.90;;;;;;;7.26;95.68;101152.20;1479189;87;21512;-83
2022/01/02 09:49:59;;;;;;;34.10;23.50;;;;;;;7.57;94.03;101141.16;1479930;87;21442;-83
2022/01/02 09:52:25;;;;;;;32.40;23.63;;;;;;;8.13;92.07;101151.96;1484472;87;21341;-82
2022/01/02 09:54:51;;;;;;;26.10;20.50;;;;;;;8.54;91.15;101149.34;1463634;87;21525;-83
2022/01/02 09:57:19;;;;;;;28.20;21.60;;;;;;;8.66;88.82;101150.69;1470253;87;21513;-83
2022/01/02 09:59:46;;;;;;;27.87;20.43;;;;;;;8.80;88.88;101162.34;1477459;87;21436;-83
2022/01/02 10:02:12;;;;;;;27.33;21.13;;;;;;;8.82;87.57;101155.16;1478877;87;22323;-83
2022/01/02 10:04:41;;;;;;;24.57;19.97;;;;;;;8.67;86.94;101143.16;1476423;87;21382;-83
2022/01/02 10:07:31;;;;;;;24.30;19.03;;;;;;;8.75;86.85;101150.02;1482171;87;21429;-83
2022/01/02 10:09:58;;;;;;;30.23;21.20;;;;;;;8.65;87.50;101139.78;1485161;87;21398;-83
2022/01/02 10:12:31;;;;;;;24.03;19.20;;;;;;;8.56;87.97;101143.48;1477497;87;21480;-83
2022/01/02 10:15:18;;;;;;;27.00;21.00;;;;;;;8.40;87.16;101143.44;1470867;87;22037;-83
2022/01/02 10:18:09;;;;;;;29.40;23.23;;;;;;;8.25;87.65;101148.05;1478977;87;21465;-83
2022/01/02 10:20:43;;;;;;;45.75;32.17;;;;;;;7.99;88.98;101136.33;1482391;87;22499;-83
2022/01/02 10:23:20;;;;;;;38.17;26.73;;;;;;;7.99;88.98;101136.33;1472985;87;21450;-83
2022/01/02 10:25:57;;;;;;;46.00;30.83;;;;;;;7.96;89.73;101133.08;1474564;87;21466;-83
2022/01/02 10:28:37;;;;;;;69.07;40.23;;;;;;;7.95;90.25;101121.70;1464830;87;21636;-84
2022/01/02 10:31:10;;;;;;;105.40;59.97;;;;;;;7.89;90.09;101113.77;1478833;87;21427;-84
2022/01/02 10:33:56;;;;;;;50.53;37.47;;;;;;;7.81;89.67;101106.06;1423890;90;21598;-84
2022/01/02 10:36:33;;;;;;;38.90;29.60;;;;;;;7.72;90.44;101114.66;1482250;87;21523;-83
2022/01/02 10:39:13;;;;;;;43.80;30.37;;;;;;;7.67;91.20;101105.28;1480945;87;21662;-83
2022/01/02 10:41:46;;;;;;;44.80;33.07;;;;;;;7.62;90.99;101114.02;1427459;90;22449;-83
2022/01/02 10:44:41;;;;;;;38.70;30.37;;;;;;;7.48;90.05;101128.66;1475142;87;21521;-83
2022/01/02 10:47:21;;;;;;;56.43;39.00;;;;;;;7.30;88.88;101127.33;1429397;90;21674;-83
2022/01/02 10:50:07;;;;;;;49.15;32.23;;;;;;;7.06;88.88;101129.44;1423286;91;21519;-83
2022/01/02 10:52:40;;;;;;;45.63;31.97;;;;;;;6.81;88.41;101122.40;1433148;90;21474;-83
2022/01/02 10:55:22;;;;;;;54.27;34.50;;;;;;;6.67;89.45;101116.77;1431269;90;21555;-83
2022/01/02 10:57:52;;;;;;;33.20;26.33;;;;;;;6.52;89.06;101117.83;1428659;90;21496;-83
2022/01/02 11:00:26;;;;;;;49.77;34.10;;;;;;;6.39;88.83;101102.06;1431712;91;21518;-83
2022/01/02 11:02:52;;;;;;;41.20;29.43;;;;;;;6.30;89.44;101098.27;1433107;90;22302;-83
2022/01/02 11:05:21;;;;;;;37.90;28.73;;;;;;;6.26;89.88;101099.40;1436485;91;21459;-83
2022/01/02 11:07:58;;;;;;;33.40;25.33;;;;;;;6.19;89.89;101093.36;1414209;90;21541;-84
2022/01/02 11:10:23;;;;;;;37.20;25.93;;;;;;;6.15;89.85;101106.33;1434116;91;21407;-84
2022/01/02 11:12:53;;;;;;;37.87;27.57;;;;;;;6.05;90.10;101107.42;1438068;90;21504;-84
2022/01/02 11:15:22;;;;;;;44.97;32.47;;;;;;;5.96;90.28;101099.67;1421415;90;21450;-84
2022/01/02 11:17:49;;;;;;;39.27;28.70;;;;;;;5.87;90.18;101095.84;1427011;90;21566;-84
2022/01/02 11:20:23;;;;;;;37.97;27.07;;;;;;;5.80;90.87;101077.94;1429128;90;21504;-84
2022/01/02 11:23:16;;;;;;;41.53;27.30;;;;;;;5.78;91.72;101076.75;1434916;90;22361;-84
2022/01/02 11:26:05;;;;;;;38.43;26.40;;;;;;;5.78;92.30;101074.13;1430364;90;21555;-84
2022/01/02 11:28:49;;;;;;;38.10;27.60;;;;;;;5.72;92.85;101061.36;1423225;91;21423;-84